sensor_id;sensor_type;location;lat;lon;timestamp;P1;durP1;ratioP1;P2;durP2;ratioP2
41687;SDS011;27371;42.686;23.362;2022-08-30T00:03:54;14.38;;;10.13;;
41687;SDS011;27371;42.686;23.362;2022-08-30T00:06:21;12.50;;;8.10;;
41687;SDS011;27371;42.686;23.362;2022-08-30T00:08:48;13.63;;;8.30;;
41687;SDS011;27371;42.686;23.362;2022-08-30T00:11:15;12.45;;;9.18;;
41687;SDS011;27371;42.686;23.362;2022-08-30T00:13:45;13.27;;;8.60;;
41687;SDS011;27371;42.686;23.362;2022-08-30T00:16:13;13.93;;;8.85;;
41687;SDS011;27371;42.686;23.362;2022-08-30T00:18:40;11.93;;;8.80;;
41687;SDS011;27371;42.686;23.362;2022-08-30T00:21:06;13.77;;;7.97;;
41687;SDS011;27371;42.686;23.362;2022-08-30T00:23:33;12.57;;;8.90;;
41687;SDS011;27371;42.686;23.362;2022-08-30T00:25:59;12.52;;;10.00;;
41687;SDS011;27371;42.686;23.362;2022-08-30T00:28:25;17.38;;;9.18;;
41687;SDS011;27371;42.686;23.362;2022-08-30T00:30:51;14.68;;;9.20;;
41687;SDS011;27371;42.686;23.362;2022-08-30T00:33:17;9.88;;;7.90;;
41687;SDS011;27371;42.686;23.362;2022-08-30T00:35:43;12.77;;;7.57;;
41687;SDS011;27371;42.686;23.362;2022-08-30T00:38:09;8.70;;;7.30;;
41687;SDS011;27371;42.686;23.362;2022-08-30T00:40:36;8.32;;;7.18;;
41687;SDS011;27371;42.686;23.362;2022-08-30T00:43:03;8.45;;;7.05;;
41687;SDS011;27371;42.686;23.362;2022-08-30T00:45:34;9.20;;;7.15;;
41687;SDS011;27371;42.686;23.362;2022-08-30T00:48:01;11.65;;;8.00;;
41687;SDS011;27371;42.686;23.362;2022-08-30T00:50:28;9.02;;;6.97;;
41687;SDS011;27371;42.686;23.362;2022-08-30T00:52:59;11.55;;;8.52;;
41687;SDS011;27371;42.686;23.362;2022-08-30T00:55:28;18.80;;;13.05;;
41687;SDS011;27371;42.686;23.362;2022-08-30T00:57:55;14.30;;;11.48;;
41687;SDS011;27371;42.686;23.362;2022-08-30T01:00:23;11.80;;;9.15;;
41687;SDS011;27371;42.686;23.362;2022-08-30T01:02:49;10.48;;;8.57;;
41687;SDS011;27371;42.686;23.362;2022-08-30T01:05:14;11.00;;;7.55;;
41687;SDS011;27371;42.686;23.362;2022-08-30T01:07:40;10.18;;;7.78;;
41687;SDS011;27371;42.686;23.362;2022-08-30T01:10:06;9.05;;;7.05;;
41687;SDS011;27371;42.686;23.362;2022-08-30T01:12:34;10.05;;;7.63;;
41687;SDS011;27371;42.686;23.362;2022-08-30T01:15:01;11.40;;;7.43;;
41687;SDS011;27371;42.686;23.362;2022-08-30T01:17:28;8.13;;;7.20;;
41687;SDS011;27371;42.686;23.362;2022-08-30T01:19:56;10.65;;;6.97;;
41687;SDS011;27371;42.686;23.362;2022-08-30T01:24:59;11.27;;;7.68;;
41687;SDS011;27371;42.686;23.362;2022-08-30T01:27:25;8.40;;;7.03;;
41687;SDS011;27371;42.686;23.362;2022-08-30T01:29:53;9.15;;;6.63;;
41687;SDS011;27371;42.686;23.362;2022-08-30T01:32:20;11.90;;;9.60;;
41687;SDS011;27371;42.686;23.362;2022-08-30T01:34:48;12.30;;;10.60;;
41687;SDS011;27371;42.686;23.362;2022-08-30T01:37:15;10.32;;;8.50;;
41687;SDS011;27371;42.686;23.362;2022-08-30T01:39:45;8.80;;;7.78;;
41687;SDS011;27371;42.686;23.362;2022-08-30T01:42:12;10.88;;;8.10;;
41687;SDS011;27371;42.686;23.362;2022-08-30T01:44:39;10.30;;;7.85;;
41687;SDS011;27371;42.686;23.362;2022-08-30T01:47:04;11.07;;;7.60;;
41687;SDS011;27371;42.686;23.362;2022-08-30T01:49:30;10.32;;;7.88;;
41687;SDS011;27371;42.686;23.362;2022-08-30T01:51:56;12.00;;;7.95;;
41687;SDS011;27371;42.686;23.362;2022-08-30T01:54:22;14.85;;;8.07;;
41687;SDS011;27371;42.686;23.362;2022-08-30T01:56:47;12.35;;;10.40;;
41687;SDS011;27371;42.686;23.362;2022-08-30T01:59:13;15.05;;;11.27;;
41687;SDS011;27371;42.686;23.362;2022-08-30T02:01:39;14.10;;;10.77;;
41687;SDS011;27371;42.686;23.362;2022-08-30T02:04:06;14.75;;;10.25;;
41687;SDS011;27371;42.686;23.362;2022-08-30T02:06:36;11.48;;;10.13;;
41687;SDS011;27371;42.686;23.362;2022-08-30T02:09:03;17.50;;;11.00;;
41687;SDS011;27371;42.686;23.362;2022-08-30T02:11:29;13.30;;;9.98;;
41687;SDS011;27371;42.686;23.362;2022-08-30T02:13:54;11.15;;;9.27;;
41687;SDS011;27371;42.686;23.362;2022-08-30T02:16:21;14.27;;;9.85;;
41687;SDS011;27371;42.686;23.362;2022-08-30T02:18:48;11.32;;;9.68;;
41687;SDS011;27371;42.686;23.362;2022-08-30T02:21:16;12.70;;;9.57;;
41687;SDS011;27371;42.686;23.362;2022-08-30T02:23:41;11.23;;;9.77;;
41687;SDS011;27371;42.686;23.362;2022-08-30T02:26:07;15.77;;;11.25;;
41687;SDS011;27371;42.686;23.362;2022-08-30T02:28:34;12.55;;;10.43;;
41687;SDS011;27371;42.686;23.362;2022-08-30T02:30:59;15.25;;;10.55;;
41687;SDS011;27371;42.686;23.362;2022-08-30T02:33:26;11.50;;;9.52;;
41687;SDS011;27371;42.686;23.362;2022-08-30T02:35:51;13.68;;;10.18;;
41687;SDS011;27371;42.686;23.362;2022-08-30T02:38:17;12.25;;;9.95;;
41687;SDS011;27371;42.686;23.362;2022-08-30T02:40:42;17.20;;;12.95;;
41687;SDS011;27371;42.686;23.362;2022-08-30T02:43:09;13.43;;;11.93;;
41687;SDS011;27371;42.686;23.362;2022-08-30T02:45:35;18.98;;;12.48;;
41687;SDS011;27371;42.686;23.362;2022-08-30T02:48:01;11.90;;;10.05;;
41687;SDS011;27371;42.686;23.362;2022-08-30T02:50:26;16.13;;;9.95;;
41687;SDS011;27371;42.686;23.362;2022-08-30T02:52:52;12.55;;;9.57;;
41687;SDS011;27371;42.686;23.362;2022-08-30T02:55:17;11.00;;;8.20;;
41687;SDS011;27371;42.686;23.362;2022-08-30T02:57:43;11.60;;;9.27;;
41687;SDS011;27371;42.686;23.362;2022-08-30T03:00:10;12.05;;;8.70;;
41687;SDS011;27371;42.686;23.362;2022-08-30T03:02:39;11.38;;;8.75;;
41687;SDS011;27371;42.686;23.362;2022-08-30T03:05:05;9.18;;;8.25;;
41687;SDS011;27371;42.686;23.362;2022-08-30T03:07:31;12.20;;;8.95;;
41687;SDS011;27371;42.686;23.362;2022-08-30T03:09:58;13.63;;;9.32;;
41687;SDS011;27371;42.686;23.362;2022-08-30T03:12:24;10.20;;;9.15;;
41687;SDS011;27371;42.686;23.362;2022-08-30T03:14:50;10.90;;;9.80;;
41687;SDS011;27371;42.686;23.362;2022-08-30T03:17:15;15.70;;;9.25;;
41687;SDS011;27371;42.686;23.362;2022-08-30T03:19:42;14.40;;;9.65;;
41687;SDS011;27371;42.686;23.362;2022-08-30T03:22:09;11.70;;;9.82;;
41687;SDS011;27371;42.686;23.362;2022-08-30T03:24:35;12.65;;;9.90;;
41687;SDS011;27371;42.686;23.362;2022-08-30T03:27:01;14.60;;;10.50;;
41687;SDS011;27371;42.686;23.362;2022-08-30T03:29:27;12.23;;;10.70;;
41687;SDS011;27371;42.686;23.362;2022-08-30T03:31:54;14.05;;;12.52;;
41687;SDS011;27371;42.686;23.362;2022-08-30T03:34:21;11.45;;;10.27;;
41687;SDS011;27371;42.686;23.362;2022-08-30T03:36:49;13.00;;;9.63;;
41687;SDS011;27371;42.686;23.362;2022-08-30T03:39:16;14.02;;;10.18;;
41687;SDS011;27371;42.686;23.362;2022-08-30T03:41:42;14.77;;;10.05;;
41687;SDS011;27371;42.686;23.362;2022-08-30T03:44:09;13.55;;;10.63;;
41687;SDS011;27371;42.686;23.362;2022-08-30T03:46:35;14.60;;;9.70;;
41687;SDS011;27371;42.686;23.362;2022-08-30T03:49:02;12.43;;;10.07;;
41687;SDS011;27371;42.686;23.362;2022-08-30T03:51:28;12.60;;;10.05;;
41687;SDS011;27371;42.686;23.362;2022-08-30T03:53:53;11.85;;;10.27;;
41687;SDS011;27371;42.686;23.362;2022-08-30T03:56:19;14.02;;;10.55;;
41687;SDS011;27371;42.686;23.362;2022-08-30T03:58:45;11.98;;;10.18;;
41687;SDS011;27371;42.686;23.362;2022-08-30T04:01:11;14.63;;;10.48;;
41687;SDS011;27371;42.686;23.362;2022-08-30T04:03:36;12.48;;;10.25;;
41687;SDS011;27371;42.686;23.362;2022-08-30T04:06:02;17.27;;;10.90;;
41687;SDS011;27371;42.686;23.362;2022-08-30T04:08:27;16.85;;;11.13;;
41687;SDS011;27371;42.686;23.362;2022-08-30T04:10:53;14.98;;;11.02;;
41687;SDS011;27371;42.686;23.362;2022-08-30T04:13:20;12.95;;;11.00;;
41687;SDS011;27371;42.686;23.362;2022-08-30T04:15:46;12.40;;;9.82;;
41687;SDS011;27371;42.686;23.362;2022-08-30T04:18:12;16.02;;;11.70;;
41687;SDS011;27371;42.686;23.362;2022-08-30T04:20:38;14.15;;;10.45;;
41687;SDS011;27371;42.686;23.362;2022-08-30T04:23:04;19.33;;;10.43;;
41687;SDS011;27371;42.686;23.362;2022-08-30T04:25:33;19.20;;;10.25;;
41687;SDS011;27371;42.686;23.362;2022-08-30T04:28:01;17.48;;;10.10;;
41687;SDS011;27371;42.686;23.362;2022-08-30T04:30:27;13.57;;;9.98;;
41687;SDS011;27371;42.686;23.362;2022-08-30T04:32:52;16.10;;;10.43;;
41687;SDS011;27371;42.686;23.362;2022-08-30T04:35:18;12.80;;;10.18;;
41687;SDS011;27371;42.686;23.362;2022-08-30T04:37:45;14.13;;;10.15;;
41687;SDS011;27371;42.686;23.362;2022-08-30T04:40:10;15.05;;;10.10;;
41687;SDS011;27371;42.686;23.362;2022-08-30T04:42:38;15.27;;;10.13;;
41687;SDS011;27371;42.686;23.362;2022-08-30T04:45:06;15.80;;;10.57;;
41687;SDS011;27371;42.686;23.362;2022-08-30T04:47:33;14.18;;;10.32;;
41687;SDS011;27371;42.686;23.362;2022-08-30T04:49:59;16.38;;;11.00;;
41687;SDS011;27371;42.686;23.362;2022-08-30T04:52:25;11.93;;;9.73;;
41687;SDS011;27371;42.686;23.362;2022-08-30T04:54:56;11.75;;;9.70;;
41687;SDS011;27371;42.686;23.362;2022-08-30T04:57:23;16.25;;;10.77;;
41687;SDS011;27371;42.686;23.362;2022-08-30T04:59:49;10.80;;;9.68;;
41687;SDS011;27371;42.686;23.362;2022-08-30T05:02:14;17.15;;;10.65;;
41687;SDS011;27371;42.686;23.362;2022-08-30T05:04:40;15.18;;;10.70;;
41687;SDS011;27371;42.686;23.362;2022-08-30T05:07:26;18.48;;;10.57;;
41687;SDS011;27371;42.686;23.362;2022-08-30T05:09:51;12.07;;;9.95;;
41687;SDS011;27371;42.686;23.362;2022-08-30T05:12:17;14.98;;;11.18;;
41687;SDS011;27371;42.686;23.362;2022-08-30T05:14:43;15.60;;;10.63;;
41687;SDS011;27371;42.686;23.362;2022-08-30T05:17:08;11.38;;;10.27;;
41687;SDS011;27371;42.686;23.362;2022-08-30T05:19:34;14.18;;;10.63;;
41687;SDS011;27371;42.686;23.362;2022-08-30T05:21:59;16.73;;;10.55;;
41687;SDS011;27371;42.686;23.362;2022-08-30T05:24:25;17.50;;;10.45;;
41687;SDS011;27371;42.686;23.362;2022-08-30T05:26:50;15.30;;;10.45;;
41687;SDS011;27371;42.686;23.362;2022-08-30T05:29:16;14.55;;;10.20;;
41687;SDS011;27371;42.686;23.362;2022-08-30T05:31:42;17.60;;;11.15;;
41687;SDS011;27371;42.686;23.362;2022-08-30T05:34:09;14.13;;;11.65;;
41687;SDS011;27371;42.686;23.362;2022-08-30T05:36:37;15.02;;;11.18;;
41687;SDS011;27371;42.686;23.362;2022-08-30T05:39:05;17.98;;;11.80;;
41687;SDS011;27371;42.686;23.362;2022-08-30T05:41:31;15.48;;;11.13;;
41687;SDS011;27371;42.686;23.362;2022-08-30T05:43:58;14.07;;;10.55;;
41687;SDS011;27371;42.686;23.362;2022-08-30T05:46:25;17.27;;;11.07;;
41687;SDS011;27371;42.686;23.362;2022-08-30T05:48:54;15.23;;;11.25;;
41687;SDS011;27371;42.686;23.362;2022-08-30T05:51:22;26.15;;;11.52;;
41687;SDS011;27371;42.686;23.362;2022-08-30T05:53:49;19.15;;;11.32;;
41687;SDS011;27371;42.686;23.362;2022-08-30T05:56:17;14.63;;;11.02;;
41687;SDS011;27371;42.686;23.362;2022-08-30T05:58:45;15.75;;;11.15;;
41687;SDS011;27371;42.686;23.362;2022-08-30T06:01:18;22.45;;;12.05;;
41687;SDS011;27371;42.686;23.362;2022-08-30T06:03:49;21.17;;;10.48;;
41687;SDS011;27371;42.686;23.362;2022-08-30T06:06:15;15.02;;;11.38;;
41687;SDS011;27371;42.686;23.362;2022-08-30T06:08:41;18.42;;;10.95;;
41687;SDS011;27371;42.686;23.362;2022-08-30T06:11:09;17.67;;;10.95;;
41687;SDS011;27371;42.686;23.362;2022-08-30T06:13:36;17.00;;;10.32;;
41687;SDS011;27371;42.686;23.362;2022-08-30T06:16:01;30.40;;;21.90;;
41687;SDS011;27371;42.686;23.362;2022-08-30T06:18:27;16.33;;;11.68;;
41687;SDS011;27371;42.686;23.362;2022-08-30T06:20:52;19.52;;;12.15;;
41687;SDS011;27371;42.686;23.362;2022-08-30T06:23:18;14.55;;;11.27;;
41687;SDS011;27371;42.686;23.362;2022-08-30T06:25:43;14.15;;;10.85;;
41687;SDS011;27371;42.686;23.362;2022-08-30T06:28:09;17.10;;;10.88;;
41687;SDS011;27371;42.686;23.362;2022-08-30T06:30:35;14.55;;;9.90;;
41687;SDS011;27371;42.686;23.362;2022-08-30T06:33:04;12.95;;;9.95;;
41687;SDS011;27371;42.686;23.362;2022-08-30T06:35:30;16.27;;;10.35;;
41687;SDS011;27371;42.686;23.362;2022-08-30T06:37:57;18.63;;;11.20;;
41687;SDS011;27371;42.686;23.362;2022-08-30T06:40:23;15.30;;;10.25;;
41687;SDS011;27371;42.686;23.362;2022-08-30T06:42:49;18.80;;;11.48;;
41687;SDS011;27371;42.686;23.362;2022-08-30T06:45:15;11.80;;;9.60;;
41687;SDS011;27371;42.686;23.362;2022-08-30T06:47:42;13.65;;;9.88;;
41687;SDS011;27371;42.686;23.362;2022-08-30T06:50:09;13.88;;;9.48;;
41687;SDS011;27371;42.686;23.362;2022-08-30T06:52:36;13.13;;;9.43;;
41687;SDS011;27371;42.686;23.362;2022-08-30T06:55:02;16.38;;;9.93;;
41687;SDS011;27371;42.686;23.362;2022-08-30T06:57:28;13.82;;;10.82;;
41687;SDS011;27371;42.686;23.362;2022-08-30T06:59:54;18.48;;;10.75;;
41687;SDS011;27371;42.686;23.362;2022-08-30T07:02:20;19.55;;;10.57;;
41687;SDS011;27371;42.686;23.362;2022-08-30T07:04:46;14.95;;;10.30;;
41687;SDS011;27371;42.686;23.362;2022-08-30T07:07:12;18.10;;;11.57;;
41687;SDS011;27371;42.686;23.362;2022-08-30T07:09:38;20.00;;;11.55;;
41687;SDS011;27371;42.686;23.362;2022-08-30T07:12:07;20.77;;;11.20;;
41687;SDS011;27371;42.686;23.362;2022-08-30T07:14:34;14.32;;;10.25;;
41687;SDS011;27371;42.686;23.362;2022-08-30T07:17:00;18.65;;;10.68;;
41687;SDS011;27371;42.686;23.362;2022-08-30T07:19:25;16.92;;;9.73;;
41687;SDS011;27371;42.686;23.362;2022-08-30T07:21:51;16.75;;;10.82;;
41687;SDS011;27371;42.686;23.362;2022-08-30T07:24:16;15.65;;;10.02;;
41687;SDS011;27371;42.686;23.362;2022-08-30T07:26:47;16.77;;;10.05;;
41687;SDS011;27371;42.686;23.362;2022-08-30T07:29:15;23.88;;;9.73;;
41687;SDS011;27371;42.686;23.362;2022-08-30T07:31:41;21.13;;;10.45;;
41687;SDS011;27371;42.686;23.362;2022-08-30T07:34:08;16.42;;;10.82;;
41687;SDS011;27371;42.686;23.362;2022-08-30T07:36:34;14.00;;;10.90;;
41687;SDS011;27371;42.686;23.362;2022-08-30T07:39:02;17.42;;;11.18;;
41687;SDS011;27371;42.686;23.362;2022-08-30T07:41:29;21.90;;;11.93;;
41687;SDS011;27371;42.686;23.362;2022-08-30T07:43:58;21.17;;;10.98;;
41687;SDS011;27371;42.686;23.362;2022-08-30T07:46:23;16.38;;;11.75;;
41687;SDS011;27371;42.686;23.362;2022-08-30T07:48:50;16.08;;;10.25;;
41687;SDS011;27371;42.686;23.362;2022-08-30T07:51:20;15.32;;;10.80;;
41687;SDS011;27371;42.686;23.362;2022-08-30T07:53:48;15.57;;;10.60;;
41687;SDS011;27371;42.686;23.362;2022-08-30T07:56:14;17.23;;;10.38;;
41687;SDS011;27371;42.686;23.362;2022-08-30T07:58:40;15.40;;;10.50;;
41687;SDS011;27371;42.686;23.362;2022-08-30T08:01:06;16.10;;;10.73;;
41687;SDS011;27371;42.686;23.362;2022-08-30T08:03:34;13.38;;;11.18;;
41687;SDS011;27371;42.686;23.362;2022-08-30T08:06:01;16.10;;;11.20;;
41687;SDS011;27371;42.686;23.362;2022-08-30T08:08:28;15.30;;;11.05;;
41687;SDS011;27371;42.686;23.362;2022-08-30T08:10:54;16.63;;;11.00;;
41687;SDS011;27371;42.686;23.362;2022-08-30T08:13:20;18.65;;;11.82;;
41687;SDS011;27371;42.686;23.362;2022-08-30T08:15:47;19.35;;;10.88;;
41687;SDS011;27371;42.686;23.362;2022-08-30T08:18:13;14.52;;;11.02;;
41687;SDS011;27371;42.686;23.362;2022-08-30T08:20:38;16.92;;;10.50;;
41687;SDS011;27371;42.686;23.362;2022-08-30T08:23:04;14.55;;;11.00;;
41687;SDS011;27371;42.686;23.362;2022-08-30T08:25:30;14.40;;;10.52;;
41687;SDS011;27371;42.686;23.362;2022-08-30T08:27:55;14.00;;;10.18;;
41687;SDS011;27371;42.686;23.362;2022-08-30T08:30:21;13.80;;;10.23;;
41687;SDS011;27371;42.686;23.362;2022-08-30T08:32:48;15.30;;;10.43;;
41687;SDS011;27371;42.686;23.362;2022-08-30T08:35:16;16.08;;;11.25;;
41687;SDS011;27371;42.686;23.362;2022-08-30T08:37:42;16.17;;;11.57;;
41687;SDS011;27371;42.686;23.362;2022-08-30T08:40:07;12.73;;;11.15;;
41687;SDS011;27371;42.686;23.362;2022-08-30T08:42:45;15.43;;;12.23;;
41687;SDS011;27371;42.686;23.362;2022-08-30T08:45:22;17.95;;;11.52;;
41687;SDS011;27371;42.686;23.362;2022-08-30T08:47:57;16.10;;;11.07;;
41687;SDS011;27371;42.686;23.362;2022-08-30T08:50:27;18.58;;;10.98;;
41687;SDS011;27371;42.686;23.362;2022-08-30T08:52:55;18.50;;;12.60;;
41687;SDS011;27371;42.686;23.362;2022-08-30T08:55:44;18.67;;;11.95;;
41687;SDS011;27371;42.686;23.362;2022-08-30T08:58:23;17.48;;;11.90;;
41687;SDS011;27371;42.686;23.362;2022-08-30T09:00:51;15.93;;;11.77;;
41687;SDS011;27371;42.686;23.362;2022-08-30T09:03:20;19.98;;;13.15;;
41687;SDS011;27371;42.686;23.362;2022-08-30T09:05:47;15.55;;;11.85;;
41687;SDS011;27371;42.686;23.362;2022-08-30T09:08:15;20.92;;;12.85;;
41687;SDS011;27371;42.686;23.362;2022-08-30T09:10:44;16.38;;;11.88;;
41687;SDS011;27371;42.686;23.362;2022-08-30T09:13:17;14.43;;;11.23;;
41687;SDS011;27371;42.686;23.362;2022-08-30T09:15:43;17.50;;;12.50;;
41687;SDS011;27371;42.686;23.362;2022-08-30T09:18:08;16.17;;;10.98;;
41687;SDS011;27371;42.686;23.362;2022-08-30T09:20:35;17.15;;;11.50;;
41687;SDS011;27371;42.686;23.362;2022-08-30T09:28:21;18.30;;;12.02;;
41687;SDS011;27371;42.686;23.362;2022-08-30T09:30:59;14.75;;;11.68;;
41687;SDS011;27371;42.686;23.362;2022-08-30T09:33:25;20.08;;;11.35;;
41687;SDS011;27371;42.686;23.362;2022-08-30T09:35:51;16.10;;;12.43;;
41687;SDS011;27371;42.686;23.362;2022-08-30T09:40:54;17.30;;;12.45;;
41687;SDS011;27371;42.686;23.362;2022-08-30T09:43:23;17.08;;;12.60;;
41687;SDS011;27371;42.686;23.362;2022-08-30T09:48:28;15.23;;;12.23;;
41687;SDS011;27371;42.686;23.362;2022-08-30T09:54:03;17.80;;;14.57;;
41687;SDS011;27371;42.686;23.362;2022-08-30T10:05:24;16.05;;;12.02;;
41687;SDS011;27371;42.686;23.362;2022-08-30T10:08:48;18.15;;;12.20;;
41687;SDS011;27371;42.686;23.362;2022-08-30T10:11:00;15.73;;;13.10;;
41687;SDS011;27371;42.686;23.362;2022-08-30T10:19:16;16.63;;;12.38;;
41687;SDS011;27371;42.686;23.362;2022-08-30T10:24:13;21.00;;;11.32;;
41687;SDS011;27371;42.686;23.362;2022-08-30T10:26:46;18.55;;;11.55;;
41687;SDS011;27371;42.686;23.362;2022-08-30T10:32:03;15.38;;;10.30;;
41687;SDS011;27371;42.686;23.362;2022-08-30T10:37:07;14.98;;;10.18;;
41687;SDS011;27371;42.686;23.362;2022-08-30T10:39:56;13.23;;;9.68;;
41687;SDS011;27371;42.686;23.362;2022-08-30T10:43:02;17.98;;;10.40;;
41687;SDS011;27371;42.686;23.362;2022-08-30T10:45:34;15.00;;;9.02;;
41687;SDS011;27371;42.686;23.362;2022-08-30T10:50:50;11.57;;;9.13;;
41687;SDS011;27371;42.686;23.362;2022-08-30T10:53:27;18.20;;;10.65;;
41687;SDS011;27371;42.686;23.362;2022-08-30T10:56:11;15.75;;;10.52;;
41687;SDS011;27371;42.686;23.362;2022-08-30T10:58:40;19.20;;;9.50;;
41687;SDS011;27371;42.686;23.362;2022-08-30T11:04:08;13.73;;;8.95;;
41687;SDS011;27371;42.686;23.362;2022-08-30T11:09:58;19.52;;;10.10;;
41687;SDS011;27371;42.686;23.362;2022-08-30T11:13:07;23.58;;;9.35;;
41687;SDS011;27371;42.686;23.362;2022-08-30T11:16:32;21.20;;;10.98;;
41687;SDS011;27371;42.686;23.362;2022-08-30T11:18:28;19.77;;;8.93;;
41687;SDS011;27371;42.686;23.362;2022-08-30T11:31:52;14.57;;;7.82;;
41687;SDS011;27371;42.686;23.362;2022-08-30T11:37:08;12.77;;;7.60;;
41687;SDS011;27371;42.686;23.362;2022-08-30T11:40:02;14.07;;;7.80;;
41687;SDS011;27371;42.686;23.362;2022-08-30T11:42:42;9.75;;;7.03;;
41687;SDS011;27371;42.686;23.362;2022-08-30T11:47:53;11.07;;;7.00;;
41687;SDS011;27371;42.686;23.362;2022-08-30T11:50:24;13.82;;;7.15;;
41687;SDS011;27371;42.686;23.362;2022-08-30T12:01:42;12.13;;;7.30;;
41687;SDS011;27371;42.686;23.362;2022-08-30T12:20:28;14.88;;;7.80;;
41687;SDS011;27371;42.686;23.362;2022-08-30T12:23:20;12.45;;;7.25;;
41687;SDS011;27371;42.686;23.362;2022-08-30T12:26:11;14.60;;;7.90;;
41687;SDS011;27371;42.686;23.362;2022-08-30T12:28:40;18.42;;;9.02;;
41687;SDS011;27371;42.686;23.362;2022-08-30T12:31:12;11.82;;;8.43;;
41687;SDS011;27371;42.686;23.362;2022-08-30T12:33:45;16.02;;;8.60;;
41687;SDS011;27371;42.686;23.362;2022-08-30T12:36:29;12.90;;;9.68;;
41687;SDS011;27371;42.686;23.362;2022-08-30T12:41:34;15.00;;;9.07;;
41687;SDS011;27371;42.686;23.362;2022-08-30T12:43:59;14.13;;;8.73;;
41687;SDS011;27371;42.686;23.362;2022-08-30T12:46:25;13.32;;;8.25;;
41687;SDS011;27371;42.686;23.362;2022-08-30T12:48:52;17.02;;;8.70;;
41687;SDS011;27371;42.686;23.362;2022-08-30T12:51:30;12.10;;;7.95;;
41687;SDS011;27371;42.686;23.362;2022-08-30T12:54:05;15.60;;;8.90;;
41687;SDS011;27371;42.686;23.362;2022-08-30T12:56:51;15.98;;;8.65;;
41687;SDS011;27371;42.686;23.362;2022-08-30T13:02:15;13.52;;;8.68;;
41687;SDS011;27371;42.686;23.362;2022-08-30T13:04:52;15.90;;;9.70;;
41687;SDS011;27371;42.686;23.362;2022-08-30T13:07:26;17.75;;;9.18;;
41687;SDS011;27371;42.686;23.362;2022-08-30T13:09:59;17.00;;;9.20;;
41687;SDS011;27371;42.686;23.362;2022-08-30T13:12:56;12.35;;;9.48;;
41687;SDS011;27371;42.686;23.362;2022-08-30T13:15:31;17.95;;;8.75;;
41687;SDS011;27371;42.686;23.362;2022-08-30T13:23:54;14.75;;;8.80;;
41687;SDS011;27371;42.686;23.362;2022-08-30T13:26:32;18.25;;;8.63;;
41687;SDS011;27371;42.686;23.362;2022-08-30T13:29:01;11.75;;;8.02;;
41687;SDS011;27371;42.686;23.362;2022-08-30T13:31:29;14.02;;;8.63;;
41687;SDS011;27371;42.686;23.362;2022-08-30T13:33:56;13.88;;;8.43;;
41687;SDS011;27371;42.686;23.362;2022-08-30T13:36:29;16.15;;;8.38;;
41687;SDS011;27371;42.686;23.362;2022-08-30T13:38:57;10.95;;;7.70;;
41687;SDS011;27371;42.686;23.362;2022-08-30T13:41:24;14.70;;;8.00;;
41687;SDS011;27371;42.686;23.362;2022-08-30T13:43:50;13.05;;;8.25;;
41687;SDS011;27371;42.686;23.362;2022-08-30T13:46:16;13.32;;;8.10;;
41687;SDS011;27371;42.686;23.362;2022-08-30T13:48:43;12.00;;;7.88;;
41687;SDS011;27371;42.686;23.362;2022-08-30T13:51:09;13.27;;;8.60;;
41687;SDS011;27371;42.686;23.362;2022-08-30T13:53:34;10.63;;;8.00;;
41687;SDS011;27371;42.686;23.362;2022-08-30T13:56:01;11.98;;;7.88;;
41687;SDS011;27371;42.686;23.362;2022-08-30T13:58:27;14.18;;;8.68;;
41687;SDS011;27371;42.686;23.362;2022-08-30T14:00:53;12.93;;;9.07;;
41687;SDS011;27371;42.686;23.362;2022-08-30T14:03:19;10.00;;;7.90;;
41687;SDS011;27371;42.686;23.362;2022-08-30T14:05:45;18.55;;;7.72;;
41687;SDS011;27371;42.686;23.362;2022-08-30T14:08:12;15.00;;;8.40;;
41687;SDS011;27371;42.686;23.362;2022-08-30T14:10:39;10.38;;;7.60;;
41687;SDS011;27371;42.686;23.362;2022-08-30T14:13:05;12.20;;;7.85;;
41687;SDS011;27371;42.686;23.362;2022-08-30T14:15:31;12.90;;;7.88;;
41687;SDS011;27371;42.686;23.362;2022-08-30T14:17:57;14.65;;;7.72;;
41687;SDS011;27371;42.686;23.362;2022-08-30T14:20:24;10.98;;;7.25;;
41687;SDS011;27371;42.686;23.362;2022-08-30T14:22:50;11.73;;;7.28;;
41687;SDS011;27371;42.686;23.362;2022-08-30T14:25:15;13.77;;;7.82;;
41687;SDS011;27371;42.686;23.362;2022-08-30T14:27:41;12.65;;;8.05;;
41687;SDS011;27371;42.686;23.362;2022-08-30T14:30:09;12.60;;;7.78;;
41687;SDS011;27371;42.686;23.362;2022-08-30T14:32:35;11.70;;;9.07;;
41687;SDS011;27371;42.686;23.362;2022-08-30T14:35:00;15.65;;;8.70;;
41687;SDS011;27371;42.686;23.362;2022-08-30T14:37:25;23.23;;;13.60;;
41687;SDS011;27371;42.686;23.362;2022-08-30T14:39:51;40.45;;;28.30;;
41687;SDS011;27371;42.686;23.362;2022-08-30T14:42:17;24.10;;;14.13;;
41687;SDS011;27371;42.686;23.362;2022-08-30T14:44:43;16.15;;;9.90;;
41687;SDS011;27371;42.686;23.362;2022-08-30T14:47:09;12.18;;;8.60;;
41687;SDS011;27371;42.686;23.362;2022-08-30T14:49:35;17.60;;;12.40;;
41687;SDS011;27371;42.686;23.362;2022-08-30T14:52:01;10.13;;;8.50;;
41687;SDS011;27371;42.686;23.362;2022-08-30T14:54:27;13.93;;;9.05;;
41687;SDS011;27371;42.686;23.362;2022-08-30T14:56:54;13.90;;;8.90;;
41687;SDS011;27371;42.686;23.362;2022-08-30T14:59:20;17.80;;;9.43;;
41687;SDS011;27371;42.686;23.362;2022-08-30T15:01:46;15.05;;;9.07;;
41687;SDS011;27371;42.686;23.362;2022-08-30T15:04:12;15.20;;;9.07;;
41687;SDS011;27371;42.686;23.362;2022-08-30T15:06:39;20.45;;;9.85;;
41687;SDS011;27371;42.686;23.362;2022-08-30T15:09:07;13.40;;;8.88;;
41687;SDS011;27371;42.686;23.362;2022-08-30T15:11:34;12.00;;;8.63;;
41687;SDS011;27371;42.686;23.362;2022-08-30T15:14:01;14.05;;;9.25;;
41687;SDS011;27371;42.686;23.362;2022-08-30T15:16:28;14.35;;;9.65;;
41687;SDS011;27371;42.686;23.362;2022-08-30T15:18:56;13.13;;;8.82;;
41687;SDS011;27371;42.686;23.362;2022-08-30T15:21:23;17.52;;;8.55;;
41687;SDS011;27371;42.686;23.362;2022-08-30T15:23:50;15.10;;;8.95;;
41687;SDS011;27371;42.686;23.362;2022-08-30T15:26:16;10.52;;;7.93;;
41687;SDS011;27371;42.686;23.362;2022-08-30T15:28:41;11.70;;;7.88;;
41687;SDS011;27371;42.686;23.362;2022-08-30T15:31:07;14.40;;;8.30;;
41687;SDS011;27371;42.686;23.362;2022-08-30T15:33:32;12.77;;;7.97;;
41687;SDS011;27371;42.686;23.362;2022-08-30T15:36:01;15.10;;;8.80;;
41687;SDS011;27371;42.686;23.362;2022-08-30T15:38:27;17.35;;;8.77;;
41687;SDS011;27371;42.686;23.362;2022-08-30T15:40:53;12.80;;;7.85;;
41687;SDS011;27371;42.686;23.362;2022-08-30T15:43:18;12.48;;;8.20;;
41687;SDS011;27371;42.686;23.362;2022-08-30T15:45:44;15.00;;;7.93;;
41687;SDS011;27371;42.686;23.362;2022-08-30T15:48:09;15.85;;;9.20;;
41687;SDS011;27371;42.686;23.362;2022-08-30T15:50:36;13.48;;;8.32;;
41687;SDS011;27371;42.686;23.362;2022-08-30T15:53:02;11.57;;;7.97;;
41687;SDS011;27371;42.686;23.362;2022-08-30T15:55:28;13.02;;;7.80;;
41687;SDS011;27371;42.686;23.362;2022-08-30T15:57:53;14.32;;;8.40;;
41687;SDS011;27371;42.686;23.362;2022-08-30T16:00:19;11.73;;;8.20;;
41687;SDS011;27371;42.686;23.362;2022-08-30T16:02:44;15.27;;;8.02;;
41687;SDS011;27371;42.686;23.362;2022-08-30T16:05:13;13.55;;;8.63;;